sensor_id;sensor_type;location;lat;lon;timestamp;P1;durP1;ratioP1;P2;durP2;ratioP2
15833;SDS011;8017;50.812;4.934;2022-09-03T00:03:03;3.13;;;1.60;;
15833;SDS011;8017;50.812;4.934;2022-09-03T00:06:12;3.40;;;1.60;;
15833;SDS011;8017;50.812;4.934;2022-09-03T00:09:18;2.77;;;1.50;;
15833;SDS011;8017;50.812;4.934;2022-09-03T00:12:25;1.80;;;1.57;;
15833;SDS011;8017;50.812;4.934;2022-09-03T00:15:30;5.13;;;1.60;;
15833;SDS011;8017;50.812;4.934;2022-09-03T00:18:35;5.10;;;1.80;;
15833;SDS011;8017;50.812;4.934;2022-09-03T00:21:45;4.00;;;1.70;;
15833;SDS011;8017;50.812;4.934;2022-09-03T00:24:50;2.97;;;1.40;;
15833;SDS011;8017;50.812;4.934;2022-09-03T00:27:53;3.37;;;1.60;;
15833;SDS011;8017;50.812;4.934;2022-09-03T00:31:02;3.60;;;1.90;;
15833;SDS011;8017;50.812;4.934;2022-09-03T00:34:13;2.80;;;1.70;;
15833;SDS011;8017;50.812;4.934;2022-09-03T00:37:22;4.23;;;1.63;;
15833;SDS011;8017;50.812;4.934;2022-09-03T00:40:31;3.00;;;1.70;;
15833;SDS011;8017;50.812;4.934;2022-09-03T00:43:49;2.30;;;1.60;;
15833;SDS011;8017;50.812;4.934;2022-09-03T00:47:08;2.03;;;1.50;;
15833;SDS011;8017;50.812;4.934;2022-09-03T00:50:18;2.63;;;1.63;;
15833;SDS011;8017;50.812;4.934;2022-09-03T00:53:31;2.33;;;1.50;;
15833;SDS011;8017;50.812;4.934;2022-09-03T00:56:42;2.80;;;1.70;;
15833;SDS011;8017;50.812;4.934;2022-09-03T00:59:54;4.00;;;1.43;;
15833;SDS011;8017;50.812;4.934;2022-09-03T01:03:04;2.50;;;1.60;;
15833;SDS011;8017;50.812;4.934;2022-09-03T01:06:12;3.53;;;1.70;;
15833;SDS011;8017;50.812;4.934;2022-09-03T01:09:23;4.47;;;1.53;;
15833;SDS011;8017;50.812;4.934;2022-09-03T01:12:34;2.60;;;1.50;;
15833;SDS011;8017;50.812;4.934;2022-09-03T01:15:43;2.10;;;1.60;;
15833;SDS011;8017;50.812;4.934;2022-09-03T01:18:55;1.87;;;1.20;;
15833;SDS011;8017;50.812;4.934;2022-09-03T01:22:12;4.40;;;1.83;;
15833;SDS011;8017;50.812;4.934;2022-09-03T01:25:32;3.13;;;1.60;;
15833;SDS011;8017;50.812;4.934;2022-09-03T01:28:51;2.63;;;1.30;;
15833;SDS011;8017;50.812;4.934;2022-09-03T01:32:01;2.17;;;1.67;;
15833;SDS011;8017;50.812;4.934;2022-09-03T01:35:09;3.13;;;1.53;;
15833;SDS011;8017;50.812;4.934;2022-09-03T01:38:19;2.20;;;1.50;;
15833;SDS011;8017;50.812;4.934;2022-09-03T01:41:30;2.10;;;1.53;;
15833;SDS011;8017;50.812;4.934;2022-09-03T01:45:06;5.47;;;1.70;;
15833;SDS011;8017;50.812;4.934;2022-09-03T01:48:39;2.37;;;1.50;;
15833;SDS011;8017;50.812;4.934;2022-09-03T01:51:45;2.53;;;1.80;;
15833;SDS011;8017;50.812;4.934;2022-09-03T01:54:50;2.30;;;1.47;;
15833;SDS011;8017;50.812;4.934;2022-09-03T01:57:59;2.60;;;2.00;;
15833;SDS011;8017;50.812;4.934;2022-09-03T02:01:09;2.10;;;1.67;;
15833;SDS011;8017;50.812;4.934;2022-09-03T02:04:16;4.43;;;1.73;;
15833;SDS011;8017;50.812;4.934;2022-09-03T02:07:19;3.53;;;1.83;;
15833;SDS011;8017;50.812;4.934;2022-09-03T02:10:24;2.80;;;1.60;;
15833;SDS011;8017;50.812;4.934;2022-09-03T02:13:30;2.73;;;1.60;;
15833;SDS011;8017;50.812;4.934;2022-09-03T02:16:37;1.70;;;1.60;;
15833;SDS011;8017;50.812;4.934;2022-09-03T02:19:39;2.60;;;1.50;;
15833;SDS011;8017;50.812;4.934;2022-09-03T02:22:41;4.60;;;1.77;;
15833;SDS011;8017;50.812;4.934;2022-09-03T02:25:43;3.73;;;1.67;;
15833;SDS011;8017;50.812;4.934;2022-09-03T02:28:48;2.13;;;1.60;;
15833;SDS011;8017;50.812;4.934;2022-09-03T02:31:52;2.13;;;1.67;;
15833;SDS011;8017;50.812;4.934;2022-09-03T02:34:54;3.67;;;1.53;;
15833;SDS011;8017;50.812;4.934;2022-09-03T02:37:56;4.73;;;1.57;;
15833;SDS011;8017;50.812;4.934;2022-09-03T02:41:09;1.97;;;1.50;;
15833;SDS011;8017;50.812;4.934;2022-09-03T02:44:15;3.07;;;1.20;;
15833;SDS011;8017;50.812;4.934;2022-09-03T02:47:24;2.20;;;1.70;;
15833;SDS011;8017;50.812;4.934;2022-09-03T02:50:31;4.07;;;1.90;;
15833;SDS011;8017;50.812;4.934;2022-09-03T02:53:40;2.43;;;1.80;;
15833;SDS011;8017;50.812;4.934;2022-09-03T02:56:42;4.17;;;1.83;;
15833;SDS011;8017;50.812;4.934;2022-09-03T02:59:47;3.87;;;1.60;;
15833;SDS011;8017;50.812;4.934;2022-09-03T03:02:50;2.60;;;1.70;;
15833;SDS011;8017;50.812;4.934;2022-09-03T03:05:53;3.83;;;1.50;;
15833;SDS011;8017;50.812;4.934;2022-09-03T03:08:56;2.97;;;1.50;;
15833;SDS011;8017;50.812;4.934;2022-09-03T03:11:59;3.97;;;1.50;;
15833;SDS011;8017;50.812;4.934;2022-09-03T03:15:01;3.13;;;1.70;;
15833;SDS011;8017;50.812;4.934;2022-09-03T03:18:04;3.10;;;1.63;;
15833;SDS011;8017;50.812;4.934;2022-09-03T03:21:07;3.67;;;1.70;;
15833;SDS011;8017;50.812;4.934;2022-09-03T03:24:10;2.90;;;1.57;;
15833;SDS011;8017;50.812;4.934;2022-09-03T03:27:12;4.73;;;1.77;;
15833;SDS011;8017;50.812;4.934;2022-09-03T03:30:14;3.53;;;1.73;;
15833;SDS011;8017;50.812;4.934;2022-09-03T03:33:17;2.40;;;1.80;;
15833;SDS011;8017;50.812;4.934;2022-09-03T03:36:20;3.17;;;1.60;;
15833;SDS011;8017;50.812;4.934;2022-09-03T03:39:22;4.63;;;1.97;;
15833;SDS011;8017;50.812;4.934;2022-09-03T03:42:24;2.67;;;1.63;;
15833;SDS011;8017;50.812;4.934;2022-09-03T03:45:26;2.63;;;2.03;;
15833;SDS011;8017;50.812;4.934;2022-09-03T03:48:30;2.83;;;1.90;;
15833;SDS011;8017;50.812;4.934;2022-09-03T03:51:32;4.70;;;1.77;;
15833;SDS011;8017;50.812;4.934;2022-09-03T03:54:35;4.23;;;2.03;;
15833;SDS011;8017;50.812;4.934;2022-09-03T03:57:36;2.70;;;2.17;;
15833;SDS011;8017;50.812;4.934;2022-09-03T04:00:38;1.90;;;1.60;;
15833;SDS011;8017;50.812;4.934;2022-09-03T04:03:41;4.33;;;1.90;;
15833;SDS011;8017;50.812;4.934;2022-09-03T04:06:44;3.67;;;2.27;;
15833;SDS011;8017;50.812;4.934;2022-09-03T04:09:46;5.17;;;2.07;;
15833;SDS011;8017;50.812;4.934;2022-09-03T04:12:48;4.27;;;2.40;;
15833;SDS011;8017;50.812;4.934;2022-09-03T04:15:58;4.10;;;2.20;;
15833;SDS011;8017;50.812;4.934;2022-09-03T04:19:02;4.00;;;2.30;;
15833;SDS011;8017;50.812;4.934;2022-09-03T04:22:04;6.43;;;2.00;;
15833;SDS011;8017;50.812;4.934;2022-09-03T04:25:06;3.30;;;2.40;;
15833;SDS011;8017;50.812;4.934;2022-09-03T04:28:09;4.20;;;2.40;;
15833;SDS011;8017;50.812;4.934;2022-09-03T04:31:12;2.97;;;2.30;;
15833;SDS011;8017;50.812;4.934;2022-09-03T04:34:16;3.90;;;2.23;;
15833;SDS011;8017;50.812;4.934;2022-09-03T04:37:18;3.80;;;2.20;;
15833;SDS011;8017;50.812;4.934;2022-09-03T04:40:20;2.97;;;1.90;;
15833;SDS011;8017;50.812;4.934;2022-09-03T04:43:22;4.37;;;2.80;;
15833;SDS011;8017;50.812;4.934;2022-09-03T04:46:24;3.40;;;2.20;;
15833;SDS011;8017;50.812;4.934;2022-09-03T04:49:33;5.63;;;2.20;;
15833;SDS011;8017;50.812;4.934;2022-09-03T04:52:35;3.47;;;2.33;;
15833;SDS011;8017;50.812;4.934;2022-09-03T04:55:37;3.07;;;2.20;;
15833;SDS011;8017;50.812;4.934;2022-09-03T04:58:39;7.13;;;2.83;;
15833;SDS011;8017;50.812;4.934;2022-09-03T05:01:43;3.93;;;2.40;;
15833;SDS011;8017;50.812;4.934;2022-09-03T05:04:47;3.17;;;2.27;;
15833;SDS011;8017;50.812;4.934;2022-09-03T05:07:49;3.30;;;2.27;;
15833;SDS011;8017;50.812;4.934;2022-09-03T05:10:56;8.93;;;2.37;;
15833;SDS011;8017;50.812;4.934;2022-09-03T05:13:59;4.93;;;2.77;;
15833;SDS011;8017;50.812;4.934;2022-09-03T05:17:01;4.43;;;1.90;;
15833;SDS011;8017;50.812;4.934;2022-09-03T05:20:05;2.80;;;2.23;;
15833;SDS011;8017;50.812;4.934;2022-09-03T05:23:08;2.97;;;2.13;;
15833;SDS011;8017;50.812;4.934;2022-09-03T05:26:11;5.60;;;2.07;;
15833;SDS011;8017;50.812;4.934;2022-09-03T05:29:14;2.47;;;2.27;;
15833;SDS011;8017;50.812;4.934;2022-09-03T05:32:18;4.90;;;2.10;;
15833;SDS011;8017;50.812;4.934;2022-09-03T05:35:21;10.17;;;2.20;;
15833;SDS011;8017;50.812;4.934;2022-09-03T05:38:24;3.40;;;2.00;;
15833;SDS011;8017;50.812;4.934;2022-09-03T05:41:26;2.67;;;2.17;;
15833;SDS011;8017;50.812;4.934;2022-09-03T05:44:28;4.90;;;1.80;;
15833;SDS011;8017;50.812;4.934;2022-09-03T05:47:30;3.17;;;1.97;;
15833;SDS011;8017;50.812;4.934;2022-09-03T05:50:33;5.07;;;2.00;;
15833;SDS011;8017;50.812;4.934;2022-09-03T05:53:37;3.37;;;1.80;;
15833;SDS011;8017;50.812;4.934;2022-09-03T05:56:40;3.90;;;1.90;;
15833;SDS011;8017;50.812;4.934;2022-09-03T05:59:42;2.93;;;2.13;;
15833;SDS011;8017;50.812;4.934;2022-09-03T06:02:48;8.03;;;2.30;;
15833;SDS011;8017;50.812;4.934;2022-09-03T06:05:52;3.50;;;2.13;;
15833;SDS011;8017;50.812;4.934;2022-09-03T06:08:55;2.37;;;2.00;;
15833;SDS011;8017;50.812;4.934;2022-09-03T06:11:58;3.50;;;2.23;;
15833;SDS011;8017;50.812;4.934;2022-09-03T06:15:00;4.40;;;2.13;;
15833;SDS011;8017;50.812;4.934;2022-09-03T06:18:02;2.37;;;2.07;;
15833;SDS011;8017;50.812;4.934;2022-09-03T06:21:06;5.83;;;2.23;;
15833;SDS011;8017;50.812;4.934;2022-09-03T06:24:08;3.87;;;1.97;;
15833;SDS011;8017;50.812;4.934;2022-09-03T06:27:11;4.60;;;2.10;;
15833;SDS011;8017;50.812;4.934;2022-09-03T06:30:13;4.97;;;2.13;;
15833;SDS011;8017;50.812;4.934;2022-09-03T06:33:15;2.70;;;1.93;;
15833;SDS011;8017;50.812;4.934;2022-09-03T06:36:19;5.90;;;2.80;;
15833;SDS011;8017;50.812;4.934;2022-09-03T06:39:21;6.53;;;2.67;;
15833;SDS011;8017;50.812;4.934;2022-09-03T06:42:24;7.43;;;2.37;;
15833;SDS011;8017;50.812;4.934;2022-09-03T06:45:26;6.50;;;2.50;;
15833;SDS011;8017;50.812;4.934;2022-09-03T06:48:29;6.63;;;2.90;;
15833;SDS011;8017;50.812;4.934;2022-09-03T06:51:33;4.03;;;3.00;;
15833;SDS011;8017;50.812;4.934;2022-09-03T06:54:37;6.33;;;2.90;;
15833;SDS011;8017;50.812;4.934;2022-09-03T06:57:39;6.83;;;2.60;;
15833;SDS011;8017;50.812;4.934;2022-09-03T07:00:41;6.80;;;2.73;;
15833;SDS011;8017;50.812;4.934;2022-09-03T07:03:46;6.07;;;2.80;;
15833;SDS011;8017;50.812;4.934;2022-09-03T07:06:53;3.07;;;2.40;;
15833;SDS011;8017;50.812;4.934;2022-09-03T07:09:55;6.17;;;2.67;;
15833;SDS011;8017;50.812;4.934;2022-09-03T07:12:57;4.80;;;2.70;;
15833;SDS011;8017;50.812;4.934;2022-09-03T07:15:59;5.00;;;2.43;;
15833;SDS011;8017;50.812;4.934;2022-09-03T07:19:02;4.37;;;2.30;;
15833;SDS011;8017;50.812;4.934;2022-09-03T07:22:07;2.80;;;1.90;;
15833;SDS011;8017;50.812;4.934;2022-09-03T07:25:09;5.27;;;2.23;;
15833;SDS011;8017;50.812;4.934;2022-09-03T07:28:11;8.90;;;2.40;;
15833;SDS011;8017;50.812;4.934;2022-09-03T07:31:13;8.50;;;2.87;;
15833;SDS011;8017;50.812;4.934;2022-09-03T07:34:19;6.23;;;2.00;;
15833;SDS011;8017;50.812;4.934;2022-09-03T07:37:24;4.17;;;2.10;;
15833;SDS011;8017;50.812;4.934;2022-09-03T07:40:26;6.10;;;2.60;;
15833;SDS011;8017;50.812;4.934;2022-09-03T07:43:31;3.83;;;2.23;;
15833;SDS011;8017;50.812;4.934;2022-09-03T07:46:35;5.37;;;1.97;;
15833;SDS011;8017;50.812;4.934;2022-09-03T07:49:39;5.63;;;2.20;;
15833;SDS011;8017;50.812;4.934;2022-09-03T07:52:42;5.23;;;2.00;;
15833;SDS011;8017;50.812;4.934;2022-09-03T07:55:44;6.60;;;2.30;;
15833;SDS011;8017;50.812;4.934;2022-09-03T07:58:46;3.60;;;2.13;;
15833;SDS011;8017;50.812;4.934;2022-09-03T08:01:48;3.73;;;2.00;;
15833;SDS011;8017;50.812;4.934;2022-09-03T08:04:51;3.23;;;1.80;;
15833;SDS011;8017;50.812;4.934;2022-09-03T08:07:54;2.87;;;2.10;;
15833;SDS011;8017;50.812;4.934;2022-09-03T08:11:02;3.40;;;2.07;;
15833;SDS011;8017;50.812;4.934;2022-09-03T08:14:05;5.63;;;2.17;;
15833;SDS011;8017;50.812;4.934;2022-09-03T08:17:09;5.53;;;2.33;;
15833;SDS011;8017;50.812;4.934;2022-09-03T08:20:11;3.60;;;1.97;;
15833;SDS011;8017;50.812;4.934;2022-09-03T08:23:14;2.60;;;1.83;;
15833;SDS011;8017;50.812;4.934;2022-09-03T08:26:17;4.50;;;2.10;;
15833;SDS011;8017;50.812;4.934;2022-09-03T08:29:20;3.37;;;1.70;;
15833;SDS011;8017;50.812;4.934;2022-09-03T08:32:22;5.63;;;2.30;;
15833;SDS011;8017;50.812;4.934;2022-09-03T08:35:24;2.53;;;2.30;;
15833;SDS011;8017;50.812;4.934;2022-09-03T08:38:27;7.30;;;2.20;;
15833;SDS011;8017;50.812;4.934;2022-09-03T08:41:32;3.00;;;1.77;;
15833;SDS011;8017;50.812;4.934;2022-09-03T08:44:45;4.67;;;2.00;;
15833;SDS011;8017;50.812;4.934;2022-09-03T08:47:51;3.63;;;2.30;;
15833;SDS011;8017;50.812;4.934;2022-09-03T08:51:02;5.43;;;2.07;;
15833;SDS011;8017;50.812;4.934;2022-09-03T08:54:09;5.43;;;2.63;;
15833;SDS011;8017;50.812;4.934;2022-09-03T08:57:13;3.73;;;2.27;;
15833;SDS011;8017;50.812;4.934;2022-09-03T09:00:19;3.20;;;2.20;;
15833;SDS011;8017;50.812;4.934;2022-09-03T09:03:32;3.87;;;2.40;;
15833;SDS011;8017;50.812;4.934;2022-09-03T09:06:43;6.63;;;2.60;;
15833;SDS011;8017;50.812;4.934;2022-09-03T09:09:54;2.90;;;2.20;;
15833;SDS011;8017;50.812;4.934;2022-09-03T09:13:06;3.40;;;2.63;;
15833;SDS011;8017;50.812;4.934;2022-09-03T09:16:17;3.77;;;2.37;;
15833;SDS011;8017;50.812;4.934;2022-09-03T09:19:29;4.57;;;2.63;;
15833;SDS011;8017;50.812;4.934;2022-09-03T09:22:39;4.30;;;2.57;;
15833;SDS011;8017;50.812;4.934;2022-09-03T09:25:46;5.00;;;2.70;;
15833;SDS011;8017;50.812;4.934;2022-09-03T09:28:51;3.67;;;2.83;;
15833;SDS011;8017;50.812;4.934;2022-09-03T09:31:56;3.43;;;2.33;;
15833;SDS011;8017;50.812;4.934;2022-09-03T09:34:58;3.60;;;2.70;;
15833;SDS011;8017;50.812;4.934;2022-09-03T09:38:00;7.17;;;2.97;;
15833;SDS011;8017;50.812;4.934;2022-09-03T09:41:10;3.53;;;2.60;;
15833;SDS011;8017;50.812;4.934;2022-09-03T09:44:17;6.50;;;3.17;;
15833;SDS011;8017;50.812;4.934;2022-09-03T09:47:21;4.17;;;2.97;;
15833;SDS011;8017;50.812;4.934;2022-09-03T09:50:25;6.17;;;2.83;;
15833;SDS011;8017;50.812;4.934;2022-09-03T09:53:27;5.17;;;3.40;;
15833;SDS011;8017;50.812;4.934;2022-09-03T09:56:31;4.17;;;2.73;;
15833;SDS011;8017;50.812;4.934;2022-09-03T09:59:33;2.93;;;2.60;;
15833;SDS011;8017;50.812;4.934;2022-09-03T10:02:37;4.00;;;2.33;;
15833;SDS011;8017;50.812;4.934;2022-09-03T10:05:41;2.60;;;2.40;;
15833;SDS011;8017;50.812;4.934;2022-09-03T10:08:43;2.40;;;2.20;;
15833;SDS011;8017;50.812;4.934;2022-09-03T10:11:47;3.87;;;2.27;;
15833;SDS011;8017;50.812;4.934;2022-09-03T10:14:52;1.63;;;1.43;;
15833;SDS011;8017;50.812;4.934;2022-09-03T10:17:59;2.63;;;1.57;;
15833;SDS011;8017;50.812;4.934;2022-09-03T10:21:07;2.90;;;1.63;;
15833;SDS011;8017;50.812;4.934;2022-09-03T10:24:22;4.57;;;1.60;;
15833;SDS011;8017;50.812;4.934;2022-09-03T10:27:39;3.20;;;1.70;;
15833;SDS011;8017;50.812;4.934;2022-09-03T10:30:47;2.60;;;1.50;;
15833;SDS011;8017;50.812;4.934;2022-09-03T10:33:58;3.07;;;2.00;;
15833;SDS011;8017;50.812;4.934;2022-09-03T10:37:09;1.63;;;1.53;;
15833;SDS011;8017;50.812;4.934;2022-09-03T10:40:21;1.67;;;1.57;;
15833;SDS011;8017;50.812;4.934;2022-09-03T10:43:38;2.27;;;1.70;;
15833;SDS011;8017;50.812;4.934;2022-09-03T10:46:55;3.90;;;1.90;;
15833;SDS011;8017;50.812;4.934;2022-09-03T10:50:06;3.20;;;1.73;;
15833;SDS011;8017;50.812;4.934;2022-09-03T10:53:19;1.97;;;1.80;;
15833;SDS011;8017;50.812;4.934;2022-09-03T10:56:41;2.87;;;1.63;;
15833;SDS011;8017;50.812;4.934;2022-09-03T10:59:58;1.80;;;1.70;;
15833;SDS011;8017;50.812;4.934;2022-09-03T11:06:46;1.63;;;1.50;;
15833;SDS011;8017;50.812;4.934;2022-09-03T11:09:53;1.63;;;1.37;;
15833;SDS011;8017;50.812;4.934;2022-09-03T11:13:03;3.73;;;2.00;;
15833;SDS011;8017;50.812;4.934;2022-09-03T11:16:12;2.73;;;1.67;;
15833;SDS011;8017;50.812;4.934;2022-09-03T11:19:19;2.03;;;1.60;;
15833;SDS011;8017;50.812;4.934;2022-09-03T11:22:28;3.10;;;1.73;;
15833;SDS011;8017;50.812;4.934;2022-09-03T11:25:33;2.90;;;1.30;;
15833;SDS011;8017;50.812;4.934;2022-09-03T11:28:42;4.97;;;1.57;;
15833;SDS011;8017;50.812;4.934;2022-09-03T11:31:55;4.47;;;2.00;;
15833;SDS011;8017;50.812;4.934;2022-09-03T11:35:01;1.80;;;1.70;;
15833;SDS011;8017;50.812;4.934;2022-09-03T11:38:19;2.37;;;1.60;;
15833;SDS011;8017;50.812;4.934;2022-09-03T11:41:27;3.57;;;2.27;;
15833;SDS011;8017;50.812;4.934;2022-09-03T11:44:35;4.20;;;2.20;;
15833;SDS011;8017;50.812;4.934;2022-09-03T11:47:40;3.53;;;2.03;;
15833;SDS011;8017;50.812;4.934;2022-09-03T11:50:50;2.10;;;1.90;;
15833;SDS011;8017;50.812;4.934;2022-09-03T11:53:54;2.80;;;2.20;;
15833;SDS011;8017;50.812;4.934;2022-09-03T11:57:07;4.40;;;2.40;;
15833;SDS011;8017;50.812;4.934;2022-09-03T12:00:13;2.67;;;2.30;;
15833;SDS011;8017;50.812;4.934;2022-09-03T12:03:20;3.03;;;2.73;;
15833;SDS011;8017;50.812;4.934;2022-09-03T12:06:29;3.30;;;2.27;;
15833;SDS011;8017;50.812;4.934;2022-09-03T12:10:02;2.47;;;1.97;;
15833;SDS011;8017;50.812;4.934;2022-09-03T12:13:24;2.73;;;2.07;;
15833;SDS011;8017;50.812;4.934;2022-09-03T12:20:14;3.10;;;2.80;;
15833;SDS011;8017;50.812;4.934;2022-09-03T12:23:26;2.10;;;1.90;;
15833;SDS011;8017;50.812;4.934;2022-09-03T12:26:37;4.10;;;2.60;;
15833;SDS011;8017;50.812;4.934;2022-09-03T12:29:48;2.57;;;2.27;;
15833;SDS011;8017;50.812;4.934;2022-09-03T12:33:02;3.20;;;2.80;;
15833;SDS011;8017;50.812;4.934;2022-09-03T12:36:07;3.70;;;2.23;;
15833;SDS011;8017;50.812;4.934;2022-09-03T12:39:10;2.50;;;2.30;;
15833;SDS011;8017;50.812;4.934;2022-09-03T12:42:17;4.00;;;2.57;;
15833;SDS011;8017;50.812;4.934;2022-09-03T12:45:24;2.27;;;2.17;;
15833;SDS011;8017;50.812;4.934;2022-09-03T12:48:26;3.73;;;2.70;;
15833;SDS011;8017;50.812;4.934;2022-09-03T12:51:33;2.67;;;2.43;;
15833;SDS011;8017;50.812;4.934;2022-09-03T12:54:41;5.20;;;2.23;;
15833;SDS011;8017;50.812;4.934;2022-09-03T12:57:49;2.63;;;2.40;;
15833;SDS011;8017;50.812;4.934;2022-09-03T13:00:55;4.33;;;2.50;;
15833;SDS011;8017;50.812;4.934;2022-09-03T13:04:04;4.17;;;2.50;;
15833;SDS011;8017;50.812;4.934;2022-09-03T13:07:12;2.40;;;2.20;;
15833;SDS011;8017;50.812;4.934;2022-09-03T13:10:25;3.27;;;2.40;;
15833;SDS011;8017;50.812;4.934;2022-09-03T13:13:30;5.83;;;2.80;;
15833;SDS011;8017;50.812;4.934;2022-09-03T13:16:45;2.50;;;2.30;;
15833;SDS011;8017;50.812;4.934;2022-09-03T13:20:19;4.40;;;2.43;;
15833;SDS011;8017;50.812;4.934;2022-09-03T13:27:03;2.25;;;2.05;;
15833;SDS011;8017;50.812;4.934;2022-09-03T13:30:11;3.55;;;2.38;;
15833;SDS011;8017;50.812;4.934;2022-09-03T13:33:18;2.38;;;2.17;;
15833;SDS011;8017;50.812;4.934;2022-09-03T13:36:24;7.55;;;2.60;;
15833;SDS011;8017;50.812;4.934;2022-09-03T13:39:32;2.57;;;1.80;;
15833;SDS011;8017;50.812;4.934;2022-09-03T13:42:41;2.13;;;2.00;;
15833;SDS011;8017;50.812;4.934;2022-09-03T13:45:49;2.63;;;2.35;;
15833;SDS011;8017;50.812;4.934;2022-09-03T13:48:55;2.90;;;2.42;;
15833;SDS011;8017;50.812;4.934;2022-09-03T13:52:20;3.73;;;2.77;;
15833;SDS011;8017;50.812;4.934;2022-09-03T13:55:30;2.70;;;2.05;;
15833;SDS011;8017;50.812;4.934;2022-09-03T13:58:41;3.67;;;1.95;;
15833;SDS011;8017;50.812;4.934;2022-09-03T14:01:57;3.43;;;2.40;;
15833;SDS011;8017;50.812;4.934;2022-09-03T14:05:08;3.87;;;1.93;;
15833;SDS011;8017;50.812;4.934;2022-09-03T14:08:19;3.90;;;2.63;;
15833;SDS011;8017;50.812;4.934;2022-09-03T14:11:27;5.30;;;2.50;;
15833;SDS011;8017;50.812;4.934;2022-09-03T14:14:39;2.83;;;2.40;;
15833;SDS011;8017;50.812;4.934;2022-09-03T14:17:47;6.77;;;2.60;;
15833;SDS011;8017;50.812;4.934;2022-09-03T14:20:57;3.33;;;2.43;;
15833;SDS011;8017;50.812;4.934;2022-09-03T14:24:03;3.97;;;2.60;;
15833;SDS011;8017;50.812;4.934;2022-09-03T14:27:10;4.07;;;2.40;;
15833;SDS011;8017;50.812;4.934;2022-09-03T14:30:18;4.73;;;2.63;;
15833;SDS011;8017;50.812;4.934;2022-09-03T14:33:31;2.38;;;2.20;;
15833;SDS011;8017;50.812;4.934;2022-09-03T14:36:48;4.07;;;2.67;;
15833;SDS011;8017;50.812;4.934;2022-09-03T14:39:55;5.60;;;2.67;;
15833;SDS011;8017;50.812;4.934;2022-09-03T14:43:15;3.75;;;2.50;;
15833;SDS011;8017;50.812;4.934;2022-09-03T14:46:33;2.90;;;2.33;;
15833;SDS011;8017;50.812;4.934;2022-09-03T14:49:50;2.53;;;2.22;;
15833;SDS011;8017;50.812;4.934;2022-09-03T14:53:10;4.00;;;2.40;;
15833;SDS011;8017;50.812;4.934;2022-09-03T14:56:29;2.10;;;1.83;;
15833;SDS011;8017;50.812;4.934;2022-09-03T14:59:54;2.50;;;2.30;;
15833;SDS011;8017;50.812;4.934;2022-09-03T15:03:21;2.10;;;1.70;;
15833;SDS011;8017;50.812;4.934;2022-09-03T15:07:08;2.20;;;2.00;;
15833;SDS011;8017;50.812;4.934;2022-09-03T15:10:24;2.95;;;1.65;;
15833;SDS011;8017;50.812;4.934;2022-09-03T15:13:36;2.10;;;1.90;;
15833;SDS011;8017;50.812;4.934;2022-09-03T15:16:49;2.95;;;1.85;;
15833;SDS011;8017;50.812;4.934;2022-09-03T15:20:01;4.40;;;2.25;;
15833;SDS011;8017;50.812;4.934;2022-09-03T15:23:16;2.40;;;1.73;;
15833;SDS011;8017;50.812;4.934;2022-09-03T15:29:51;3.67;;;2.00;;
15833;SDS011;8017;50.812;4.934;2022-09-03T15:33:05;3.03;;;1.73;;
15833;SDS011;8017;50.812;4.934;2022-09-03T15:36:16;2.03;;;1.83;;
15833;SDS011;8017;50.812;4.934;2022-09-03T15:39:22;2.17;;;1.73;;
15833;SDS011;8017;50.812;4.934;2022-09-03T15:42:27;2.22;;;2.03;;
15833;SDS011;8017;50.812;4.934;2022-09-03T15:45:34;2.92;;;1.80;;
15833;SDS011;8017;50.812;4.934;2022-09-03T15:48:44;2.78;;;2.22;;
15833;SDS011;8017;50.812;4.934;2022-09-03T15:51:56;3.37;;;2.00;;
15833;SDS011;8017;50.812;4.934;2022-09-03T15:55:07;2.90;;;2.08;;
15833;SDS011;8017;50.812;4.934;2022-09-03T15:58:13;2.22;;;2.03;;
15833;SDS011;8017;50.812;4.934;2022-09-03T16:01:38;2.35;;;1.98;;
15833;SDS011;8017;50.812;4.934;2022-09-03T16:04:52;3.85;;;2.97;;
15833;SDS011;8017;50.812;4.934;2022-09-03T16:08:08;3.88;;;2.90;;
15833;SDS011;8017;50.812;4.934;2022-09-03T16:11:20;3.75;;;2.50;;
15833;SDS011;8017;50.812;4.934;2022-09-03T16:14:33;4.37;;;3.23;;
15833;SDS011;8017;50.812;4.934;2022-09-03T16:17:43;5.03;;;3.37;;
15833;SDS011;8017;50.812;4.934;2022-09-03T16:20:53;3.80;;;2.70;;
15833;SDS011;8017;50.812;4.934;2022-09-03T16:24:00;5.07;;;2.67;;
15833;SDS011;8017;50.812;4.934;2022-09-03T16:27:10;4.97;;;2.80;;
15833;SDS011;8017;50.812;4.934;2022-09-03T16:30:20;4.20;;;2.53;;
15833;SDS011;8017;50.812;4.934;2022-09-03T16:33:31;5.00;;;2.33;;
15833;SDS011;8017;50.812;4.934;2022-09-03T16:36:42;6.00;;;2.10;;
15833;SDS011;8017;50.812;4.934;2022-09-03T16:39:54;8.17;;;2.03;;
15833;SDS011;8017;50.812;4.934;2022-09-03T16:43:05;2.97;;;1.30;;
15833;SDS011;8017;50.812;4.934;2022-09-03T16:46:17;3.03;;;0.80;;
15833;SDS011;8017;50.812;4.934;2022-09-03T16:49:29;2.63;;;0.80;;
15833;SDS011;8017;50.812;4.934;2022-09-03T16:52:40;2.73;;;0.80;;
15833;SDS011;8017;50.812;4.934;2022-09-03T16:55:56;1.83;;;1.20;;
15833;SDS011;8017;50.812;4.934;2022-09-03T16:59:10;3.53;;;0.87;;
15833;SDS011;8017;50.812;4.934;2022-09-03T17:02:28;2.97;;;0.93;;
15833;SDS011;8017;50.812;4.934;2022-09-03T17:09:37;3.38;;;0.90;;
15833;SDS011;8017;50.812;4.934;2022-09-03T17:12:51;3.70;;;1.50;;
15833;SDS011;8017;50.812;4.934;2022-09-03T17:16:07;1.40;;;1.17;;
15833;SDS011;8017;50.812;4.934;2022-09-03T17:19:21;2.50;;;1.23;;
15833;SDS011;8017;50.812;4.934;2022-09-03T17:22:33;1.20;;;1.10;;
15833;SDS011;8017;50.812;4.934;2022-09-03T17:25:47;2.55;;;1.58;;
15833;SDS011;8017;50.812;4.934;2022-09-03T17:28:57;1.30;;;1.10;;
15833;SDS011;8017;50.812;4.934;2022-09-03T17:32:11;2.13;;;0.93;;
15833;SDS011;8017;50.812;4.934;2022-09-03T17:35:26;2.10;;;1.43;;
15833;SDS011;8017;50.812;4.934;2022-09-03T17:38:44;3.77;;;1.30;;
15833;SDS011;8017;50.812;4.934;2022-09-03T17:42:10;1.77;;;1.10;;
15833;SDS011;8017;50.812;4.934;2022-09-03T17:45:21;1.30;;;0.97;;
15833;SDS011;8017;50.812;4.934;2022-09-03T17:48:46;3.00;;;1.40;;
15833;SDS011;8017;50.812;4.934;2022-09-03T17:51:51;2.63;;;1.10;;
15833;SDS011;8017;50.812;4.934;2022-09-03T17:55:10;3.10;;;1.43;;
15833;SDS011;8017;50.812;4.934;2022-09-03T17:58:15;3.37;;;1.30;;
15833;SDS011;8017;50.812;4.934;2022-09-03T18:01:25;2.20;;;1.30;;
15833;SDS011;8017;50.812;4.934;2022-09-03T18:04:41;2.20;;;1.50;;
15833;SDS011;8017;50.812;4.934;2022-09-03T18:07:48;3.13;;;1.77;;
15833;SDS011;8017;50.812;4.934;2022-09-03T18:10:56;2.80;;;1.80;;
15833;SDS011;8017;50.812;4.934;2022-09-03T18:14:12;3.50;;;1.50;;
15833;SDS011;8017;50.812;4.934;2022-09-03T18:17:24;3.80;;;1.47;;
15833;SDS011;8017;50.812;4.934;2022-09-03T18:20:38;2.67;;;1.40;;
15833;SDS011;8017;50.812;4.934;2022-09-03T18:24:03;3.80;;;1.67;;
15833;SDS011;8017;50.812;4.934;2022-09-03T18:27:35;4.33;;;1.83;;
15833;SDS011;8017;50.812;4.934;2022-09-03T18:30:57;3.03;;;1.80;;
15833;SDS011;8017;50.812;4.934;2022-09-03T18:34:18;2.83;;;1.40;;
15833;SDS011;8017;50.812;4.934;2022-09-03T18:37:42;2.20;;;1.57;;
15833;SDS011;8017;50.812;4.934;2022-09-03T18:41:03;2.70;;;1.50;;
15833;SDS011;8017;50.812;4.934;2022-09-03T18:44:34;3.37;;;1.73;;
15833;SDS011;8017;50.812;4.934;2022-09-03T18:48:06;2.23;;;1.77;;
15833;SDS011;8017;50.812;4.934;2022-09-03T18:51:33;2.50;;;1.67;;
15833;SDS011;8017;50.812;4.934;2022-09-03T18:55:00;3.47;;;2.70;;
15833;SDS011;8017;50.812;4.934;2022-09-03T18:58:29;2.67;;;2.17;;
15833;SDS011;8017;50.812;4.934;2022-09-03T19:01:54;2.57;;;2.33;;
15833;SDS011;8017;50.812;4.934;2022-09-03T19:05:15;2.30;;;1.87;;
15833;SDS011;8017;50.812;4.934;2022-09-03T19:08:45;3.23;;;1.87;;
15833;SDS011;8017;50.812;4.934;2022-09-03T19:12:11;5.33;;;2.10;;
15833;SDS011;8017;50.812;4.934;2022-09-03T19:15:42;4.20;;;2.00;;
15833;SDS011;8017;50.812;4.934;2022-09-03T19:19:15;1.93;;;1.83;;
15833;SDS011;8017;50.812;4.934;2022-09-03T19:22:48;3.50;;;3.20;;
15833;SDS011;8017;50.812;4.934;2022-09-03T19:26:10;3.80;;;3.40;;
15833;SDS011;8017;50.812;4.934;2022-09-03T19:29:44;2.63;;;2.43;;
15833;SDS011;8017;50.812;4.934;2022-09-03T19:33:14;3.80;;;2.43;;
15833;SDS011;8017;50.812;4.934;2022-09-03T19:36:44;3.93;;;2.37;;